Terminal Aerodrome Forecast
Issued by NWS Missoula, MT

Home | Current Version | Previous Version | Text Only | Print | Product List | Glossary On
Versions: 1 2 3 4 5 6 7 8 9 10 11 12 13 14
000
FTUS45 KMSO 251732
TAFGPI
TAF
KGPI 251732Z 2518/2618 VRB06KT P6SM OVC140
     FM260200 18014G24KT P6SM OVC150
     FM261000 18014G24KT P6SM VCSH BKN090=

USA.gov is the U.S. government's official web portal to all federal, state and local government web resources and services.